Terminal Aerodrome Forecast
Issued by NWS Buffalo, NY

Home | Current Version | Previous Version | Text Only | Print | Product List | Glossary On
Versions: 1 2 3 4 5 6 7 8 9 10 11 12 13 14 15 16 17 18 19 20 21 22 23
000
FTUS41 KBUF 112337
TAFART
TAF
KART 112337Z 1200/1224 09004KT P6SM BKN060
     FM120500 10007KT 1 1/2SM -SN OVC035
     FM121600 06008KT 1SM -SN OVC007
     FM121800 33007KT 3/4SM -SN OVC007
     FM122100 31011G20KT 1SM -SN OVC007=

USA.gov is the U.S. government's official web portal to all federal, state and local government web resources and services.